createdAt,value
2016-05-17T00:00:08.000Z,0
2016-05-17T00:01:10.987Z,0
2016-05-17T00:02:10.975Z,0
2016-05-17T00:03:11.008Z,0
2016-05-17T00:04:11.026Z,0
2016-05-17T00:05:10.935Z,0
2016-05-17T00:06:10.985Z,0
2016-05-17T00:07:10.956Z,0
2016-05-17T00:08:13.818Z,0
2016-05-17T00:09:10.539Z,0
2016-05-17T00:10:10.480Z,0
2016-05-17T00:11:10.405Z,0
2016-05-17T00:12:13.830Z,0
2016-05-17T00:13:10.379Z,0
2016-05-17T00:14:10.272Z,0
2016-05-17T00:15:10.243Z,0
2016-05-17T00:16:12.887Z,0
2016-05-17T00:17:10.124Z,0
2016-05-17T00:18:19.282Z,0
2016-05-17T00:19:07.317Z,0
2016-05-17T00:20:09.851Z,0
2016-05-17T00:21:12.963Z,0
2016-05-17T00:22:15.982Z,0
2016-05-17T00:23:09.796Z,0
2016-05-17T00:24:12.877Z,0
2016-05-17T00:25:09.739Z,0
2016-05-17T00:26:09.757Z,0
2016-05-17T00:27:06.823Z,0
2016-05-17T00:28:18.841Z,0
2016-05-17T00:29:09.718Z,0
2016-05-17T00:30:06.484Z,0
2016-05-17T00:31:15.442Z,0
2016-05-17T00:32:12.368Z,0
2016-05-17T00:33:09.714Z,0
2016-05-17T00:34:09.294Z,0
2016-05-17T00:35:09.234Z,0
2016-05-17T00:36:06.172Z,0
2016-05-17T00:37:15.225Z,0
2016-05-17T00:38:06.100Z,0
2016-05-17T00:39:06.431Z,0
2016-05-17T00:40:08.967Z,0
2016-05-17T00:41:11.797Z,0
2016-05-17T00:42:08.894Z,0
2016-05-17T00:43:08.991Z,0
2016-05-17T00:44:08.884Z,0
2016-05-17T00:45:09.184Z,0
2016-05-17T00:46:08.921Z,0
2016-05-17T00:47:08.299Z,0
2016-05-17T00:48:08.645Z,0
2016-05-17T00:49:05.489Z,0
2016-05-17T00:50:11.681Z,0
2016-05-17T00:51:08.621Z,0
2016-05-17T00:52:05.731Z,0
2016-05-17T00:53:05.296Z,0
2016-05-17T00:54:08.254Z,0
2016-05-17T00:55:08.195Z,0
2016-05-17T00:56:11.448Z,0
2016-05-17T00:57:11.340Z,0
2016-05-17T00:58:10.812Z,0
2016-05-17T00:59:08.003Z,0
2016-05-17T01:00:05.003Z,0
2016-05-17T01:01:04.927Z,0
2016-05-17T01:02:08.104Z,0
2016-05-17T01:03:04.651Z,0
2016-05-17T01:04:07.748Z,0
2016-05-17T01:05:04.687Z,0
2016-05-17T01:06:07.644Z,0
2016-05-17T01:07:07.614Z,0
2016-05-17T01:08:16.823Z,0
2016-05-17T01:09:04.870Z,0
2016-05-17T01:10:04.280Z,0
2016-05-17T01:11:10.285Z,0
2016-05-17T01:12:19.241Z,0
2016-05-17T01:13:10.650Z,0
2016-05-17T01:14:03.931Z,0
2016-05-17T01:15:13.905Z,0
2016-05-17T01:16:13.033Z,0
2016-05-17T01:17:04.361Z,0
2016-05-17T01:18:10.179Z,0
2016-05-17T01:19:04.382Z,0
2016-05-17T01:20:03.682Z,0
2016-05-17T01:21:09.905Z,0
2016-05-17T01:22:07.249Z,0
2016-05-17T01:23:06.846Z,0
2016-05-17T01:24:03.942Z,0
2016-05-17T01:25:06.601Z,0
2016-05-17T01:26:03.651Z,0
2016-05-17T01:27:06.810Z,0
2016-05-17T01:28:12.252Z,0
2016-05-17T01:29:06.502Z,0
2016-05-17T01:30:09.304Z,0
2016-05-17T01:31:03.476Z,0
2016-05-17T01:32:03.354Z,0
2016-05-17T01:33:08.970Z,0
2016-05-17T01:34:03.235Z,0
2016-05-17T01:35:03.206Z,0
2016-05-17T01:36:03.225Z,0
2016-05-17T01:37:03.931Z,0
2016-05-17T01:38:03.261Z,0
2016-05-17T01:39:03.108Z,0
2016-05-17T01:40:02.938Z,0
2016-05-17T01:41:02.894Z,0
2016-05-17T01:42:03.037Z,0
2016-05-17T01:43:05.775Z,0
2016-05-17T01:44:02.949Z,0
2016-05-17T01:45:05.561Z,0
2016-05-17T01:46:08.844Z,0
2016-05-17T01:47:02.660Z,0
2016-05-17T01:48:05.538Z,0
2016-05-17T01:49:05.493Z,0
2016-05-17T01:50:05.544Z,0
2016-05-17T01:51:05.374Z,0
2016-05-17T01:52:08.861Z,0
2016-05-17T01:53:02.114Z,0
2016-05-17T01:54:08.366Z,0
2016-05-17T01:55:02.026Z,0
2016-05-17T01:56:01.981Z,0
2016-05-17T01:57:07.952Z,0
2016-05-17T01:58:05.284Z,0
2016-05-17T01:59:04.880Z,0
2016-05-17T02:00:01.929Z,0
2016-05-17T02:01:04.948Z,0
2016-05-17T02:02:19.906Z,0
2016-05-17T02:03:04.781Z,0
2016-05-17T02:04:01.987Z,0
2016-05-17T02:05:01.708Z,0
2016-05-17T02:06:07.509Z,0
2016-05-17T02:07:08.323Z,0
2016-05-17T02:08:01.717Z,0
2016-05-17T02:09:04.689Z,0
2016-05-17T02:10:01.441Z,0
2016-05-17T02:11:10.493Z,0
2016-05-17T02:12:04.337Z,0
2016-05-17T02:13:07.495Z,0
2016-05-17T02:14:01.217Z,0
2016-05-17T02:15:01.205Z,0
2016-05-17T02:16:04.347Z,0
2016-05-17T02:17:04.085Z,0
2016-05-17T02:18:04.088Z,0
2016-05-17T02:19:00.808Z,0
2016-05-17T02:20:04.109Z,0
2016-05-17T02:21:01.266Z,0
2016-05-17T02:22:01.910Z,0
2016-05-17T02:23:00.757Z,0
2016-05-17T02:24:00.682Z,0
2016-05-17T02:25:00.388Z,0
2016-05-17T02:26:00.468Z,0
2016-05-17T02:27:00.580Z,0
2016-05-17T02:28:00.427Z,0
2016-05-17T02:29:00.492Z,0
2016-05-17T02:30:00.401Z,0
2016-05-17T02:31:00.216Z,0
2016-05-17T02:32:03.001Z,0
2016-05-17T02:33:00.112Z,0
2016-05-17T02:34:00.224Z,0
2016-05-17T02:35:03.304Z,0
2016-05-17T02:36:03.167Z,0
2016-05-17T02:37:03.169Z,0
2016-05-17T02:38:05.735Z,0
2016-05-17T02:39:02.847Z,0
2016-05-17T02:40:05.725Z,0
2016-05-17T02:41:00.306Z,0
2016-05-17T02:41:59.714Z,0
2016-05-17T02:42:59.670Z,0
2016-05-17T02:44:02.703Z,0
2016-05-17T02:44:59.863Z,0
2016-05-17T02:46:05.694Z,0
2016-05-17T02:47:02.775Z,0
2016-05-17T02:48:02.528Z,0
2016-05-17T02:49:02.671Z,0
2016-05-17T02:50:05.251Z,0
2016-05-17T02:51:02.347Z,0
2016-05-17T02:52:02.555Z,0
2016-05-17T02:53:02.463Z,0
2016-05-17T02:54:02.060Z,0
2016-05-17T02:55:02.218Z,0
2016-05-17T02:56:11.068Z,0
2016-05-17T02:57:04.896Z,0
2016-05-17T02:58:05.413Z,0
2016-05-17T02:59:01.916Z,0
2016-05-17T02:59:59.419Z,0
2016-05-17T03:00:58.735Z,0
2016-05-17T03:02:02.018Z,0
2016-05-17T03:03:07.599Z,0
2016-05-17T03:04:04.914Z,0
2016-05-17T03:05:04.854Z,0
2016-05-17T03:06:07.826Z,0
2016-05-17T03:07:02.015Z,0
2016-05-17T03:08:01.331Z,0
2016-05-17T03:09:01.443Z,0
2016-05-17T03:10:01.398Z,0
2016-05-17T03:10:58.026Z,0
2016-05-17T03:12:01.154Z,0
2016-05-17T03:12:58.532Z,0
2016-05-17T03:13:58.019Z,0
2016-05-17T03:14:58.209Z,0
2016-05-17T03:15:57.946Z,0
2016-05-17T03:17:00.731Z,0
2016-05-17T03:18:07.170Z,0
2016-05-17T03:18:57.939Z,0
2016-05-17T03:20:05.505Z,0
2016-05-17T03:20:57.507Z,0
2016-05-17T03:22:04.009Z,0
2016-05-17T03:23:03.965Z,0
2016-05-17T03:24:00.671Z,0
2016-05-17T03:25:03.643Z,0
2016-05-17T03:26:03.660Z,0
2016-05-17T03:27:03.585Z,0
2016-05-17T03:28:00.494Z,0
2016-05-17T03:29:00.513Z,0
2016-05-17T03:30:03.921Z,0
2016-05-17T03:31:00.190Z,0
2016-05-17T03:32:00.192Z,0
2016-05-17T03:32:57.446Z,0
2016-05-17T03:33:57.214Z,0
2016-05-17T03:35:00.154Z,0
2016-05-17T03:35:59.751Z,0
2016-05-17T03:37:06.081Z,0
2016-05-17T03:37:56.709Z,0
2016-05-17T03:39:02.945Z,0
2016-05-17T03:40:11.982Z,0
2016-05-17T03:41:02.873Z,0
2016-05-17T03:42:02.610Z,0
2016-05-17T03:42:59.784Z,0
2016-05-17T03:44:00.100Z,0
2016-05-17T03:45:02.650Z,0
2016-05-17T03:45:56.558Z,0
2016-05-17T03:47:02.389Z,0
2016-05-17T03:48:02.313Z,0
2016-05-17T03:48:56.411Z,0
2016-05-17T03:49:59.241Z,0
2016-05-17T03:51:02.196Z,0
2016-05-17T03:51:56.184Z,0
2016-05-17T03:52:56.405Z,0
2016-05-17T03:54:05.017Z,0
2016-05-17T03:55:02.613Z,0
2016-05-17T03:55:56.272Z,0
2016-05-17T03:57:01.854Z,0
2016-05-17T03:57:55.997Z,0
2016-05-17T03:58:58.749Z,5
2016-05-17T03:59:55.533Z,5
2016-05-17T04:01:01.849Z,5
2016-05-17T04:01:55.788Z,5
2016-05-17T04:02:55.713Z,5
2016-05-17T04:03:58.825Z,5
2016-05-17T04:04:55.610Z,5
2016-05-17T04:05:58.582Z,5
2016-05-17T04:06:55.787Z,5
2016-05-17T04:07:58.509Z,5
2016-05-17T04:08:55.386Z,5
2016-05-17T04:09:55.170Z,5
2016-05-17T04:10:55.281Z,5
2016-05-17T04:11:58.269Z,5
2016-05-17T04:12:58.412Z,5
2016-05-17T04:13:58.134Z,5
2016-05-17T04:14:58.120Z,5
2016-05-17T04:15:57.701Z,5
2016-05-17T04:16:57.845Z,5
2016-05-17T04:18:00.956Z,5
2016-05-17T04:18:54.741Z,5
2016-05-17T04:19:55.586Z,5
2016-05-17T04:20:57.622Z,5
2016-05-17T04:22:07.390Z,5
2016-05-17T04:22:54.877Z,5
2016-05-17T04:23:54.942Z,5
2016-05-17T04:24:54.413Z,5
2016-05-17T04:25:57.478Z,10
2016-05-17T04:27:03.512Z,10
2016-05-17T04:28:00.421Z,10
2016-05-17T04:28:57.377Z,10
2016-05-17T04:29:54.411Z,10
2016-05-17T04:31:03.132Z,10
2016-05-17T04:32:03.354Z,10
2016-05-17T04:32:57.060Z,10
2016-05-17T04:33:56.968Z,10
2016-05-17T04:35:06.487Z,10
2016-05-17T04:35:57.020Z,10
2016-05-17T04:36:57.290Z,10
2016-05-17T04:37:54.277Z,10
2016-05-17T04:38:56.904Z,10
2016-05-17T04:39:56.657Z,10
2016-05-17T04:40:56.987Z,10
2016-05-17T04:41:59.725Z,10
2016-05-17T04:42:59.633Z,10
2016-05-17T04:43:53.823Z,15
2016-05-17T04:44:56.779Z,15
2016-05-17T04:45:56.736Z,15
2016-05-17T04:46:53.707Z,15
2016-05-17T04:47:53.397Z,15
2016-05-17T04:49:02.337Z,15
2016-05-17T04:49:56.152Z,15
2016-05-17T04:50:56.108Z,15
2016-05-17T04:51:53.657Z,15
2016-05-17T04:52:56.395Z,15
2016-05-17T04:53:52.929Z,15
2016-05-17T04:54:53.228Z,15
2016-05-17T04:55:56.013Z,15
2016-05-17T04:56:55.921Z,15
2016-05-17T04:57:52.939Z,15
2016-05-17T04:59:01.724Z,15
2016-05-17T04:59:53.241Z,15
2016-05-17T05:00:59.135Z,15
2016-05-17T05:01:52.482Z,15
2016-05-17T05:02:55.641Z,15
2016-05-17T05:03:55.643Z,15
2016-05-17T05:04:52.521Z,15
2016-05-17T05:05:55.476Z,20
2016-05-17T05:06:56.042Z,20
2016-05-17T05:07:55.372Z,20
2016-05-17T05:08:55.343Z,25
2016-05-17T05:09:54.837Z,25
2016-05-17T05:10:57.992Z,25
2016-05-17T05:11:55.850Z,25
2016-05-17T05:12:55.301Z,25
2016-05-17T05:13:52.254Z,25
2016-05-17T05:14:52.239Z,25
2016-05-17T05:15:52.100Z,25
2016-05-17T05:17:01.088Z,25
2016-05-17T05:18:01.183Z,25
2016-05-17T05:19:01.140Z,25
2016-05-17T05:19:58.090Z,25
2016-05-17T05:20:58.051Z,25
2016-05-17T05:21:55.200Z,25
2016-05-17T05:22:51.786Z,25
2016-05-17T05:23:54.746Z,25
2016-05-17T05:24:54.675Z,25
2016-05-17T05:25:51.649Z,25
2016-05-17T05:26:54.607Z,25
2016-05-17T05:28:00.720Z,25
2016-05-17T05:28:57.663Z,25
2016-05-17T05:30:00.604Z,25
2016-05-17T05:30:54.936Z,20
2016-05-17T05:31:54.485Z,20
2016-05-17T05:32:54.286Z,25
2016-05-17T05:33:54.790Z,30
2016-05-17T05:34:54.558Z,30
2016-05-17T05:35:51.499Z,30
2016-05-17T05:37:03.127Z,35
2016-05-17T05:37:54.177Z,35
2016-05-17T05:38:57.165Z,35
2016-05-17T05:39:53.996Z,35
2016-05-17T05:40:54.045Z,35
2016-05-17T05:41:53.985Z,35
2016-05-17T05:42:51.551Z,35
2016-05-17T05:43:50.897Z,35
2016-05-17T05:44:53.884Z,35
2016-05-17T05:45:53.824Z,35
2016-05-17T05:46:50.437Z,35
2016-05-17T05:47:53.361Z,35
2016-05-17T05:48:50.661Z,35
2016-05-17T05:49:51.631Z,35
2016-05-17T05:50:50.509Z,35
2016-05-17T05:51:50.575Z,35
2016-05-17T05:52:53.453Z,35
2016-05-17T05:53:53.409Z,35
2016-05-17T05:54:56.349Z,35
2016-05-17T05:55:53.304Z,35
2016-05-17T05:56:49.932Z,35
2016-05-17T05:57:56.185Z,35
2016-05-17T05:58:53.344Z,35
2016-05-17T05:59:55.956Z,35
2016-05-17T06:00:53.037Z,30
2016-05-17T06:01:50.383Z,30
2016-05-17T06:02:49.980Z,30
2016-05-17T06:03:49.889Z,35
2016-05-17T06:04:49.703Z,35
2016-05-17T06:05:49.800Z,35
2016-05-17T06:06:53.771Z,35
2016-05-17T06:07:53.180Z,40
2016-05-17T06:09:04.496Z,40
2016-05-17T06:09:55.421Z,40
2016-05-17T06:10:52.532Z,40
2016-05-17T06:11:49.504Z,40
2016-05-17T06:12:55.287Z,45
2016-05-17T06:13:55.602Z,45
2016-05-17T06:14:55.215Z,45
2016-05-17T06:15:52.765Z,45
2016-05-17T06:16:49.470Z,45
2016-05-17T06:17:55.067Z,45
2016-05-17T06:18:49.851Z,45
2016-05-17T06:19:52.103Z,45
2016-05-17T06:20:52.357Z,45
2016-05-17T06:21:48.874Z,45
2016-05-17T06:22:51.970Z,45
2016-05-17T06:24:04.020Z,45
2016-05-17T06:24:49.320Z,45
2016-05-17T06:25:48.776Z,45
2016-05-17T06:26:54.576Z,45
2016-05-17T06:27:54.766Z,45
2016-05-17T06:28:54.455Z,50
2016-05-17T06:29:54.490Z,50
2016-05-17T06:30:48.758Z,50
2016-05-17T06:31:51.511Z,55
2016-05-17T06:32:51.264Z,55
2016-05-17T06:33:54.407Z,60
2016-05-17T06:34:48.175Z,60
2016-05-17T06:35:48.131Z,65
2016-05-17T06:36:52.025Z,65
2016-05-17T06:37:54.230Z,65
2016-05-17T06:38:48.108Z,60
2016-05-17T06:39:50.907Z,60
2016-05-17T06:40:48.035Z,60
2016-05-17T06:41:48.585Z,55
2016-05-17T06:42:48.135Z,55
2016-05-17T06:43:50.871Z,55
2016-05-17T06:44:53.702Z,55
2016-05-17T06:45:52.111Z,55
2016-05-17T06:46:47.941Z,60
2016-05-17T06:47:53.601Z,60
2016-05-17T06:48:59.650Z,60
2016-05-17T06:49:47.434Z,60
2016-05-17T06:50:47.546Z,60
2016-05-17T06:51:47.174Z,60
2016-05-17T06:52:50.504Z,65
2016-05-17T06:53:47.210Z,65
2016-05-17T06:54:47.604Z,65
2016-05-17T06:55:47.294Z,65
2016-05-17T06:56:47.093Z,65
2016-05-17T06:57:47.158Z,70
2016-05-17T06:58:50.521Z,70
2016-05-17T06:59:47.289Z,70
2016-05-17T07:00:47.011Z,75
2016-05-17T07:01:47.060Z,75
2016-05-17T07:02:46.844Z,75
2016-05-17T07:03:49.941Z,75
2016-05-17T07:04:52.849Z,80
2016-05-17T07:05:56.180Z,80
2016-05-17T07:06:52.824Z,85
2016-05-17T07:07:49.733Z,85
2016-05-17T07:08:46.657Z,90
2016-05-17T07:09:49.285Z,90
2016-05-17T07:10:46.521Z,90
2016-05-17T07:11:49.368Z,90
2016-05-17T07:12:49.402Z,90
2016-05-17T07:13:49.436Z,90
2016-05-17T07:14:58.345Z,90
2016-05-17T07:15:46.644Z,90
2016-05-17T07:16:49.101Z,85
2016-05-17T07:17:49.229Z,85
2016-05-17T07:19:06.262Z,85
2016-05-17T07:19:49.109Z,85
2016-05-17T07:20:46.298Z,85
2016-05-17T07:21:46.489Z,85
2016-05-17T07:22:45.867Z,85
2016-05-17T07:23:52.353Z,85
2016-05-17T07:24:46.013Z,90
2016-05-17T07:25:48.656Z,90
2016-05-17T07:26:48.924Z,95
2016-05-17T07:27:45.599Z,100
2016-05-17T07:28:45.633Z,100
2016-05-17T07:29:45.667Z,105
2016-05-17T07:30:45.575Z,105
2016-05-17T07:31:45.734Z,105
2016-05-17T07:32:45.472Z,105
2016-05-17T07:33:51.600Z,105
2016-05-17T07:34:48.492Z,105
2016-05-17T07:35:48.339Z,110
2016-05-17T07:36:45.498Z,110
2016-05-17T07:37:57.422Z,110
2016-05-17T07:38:45.019Z,110
2016-05-17T07:39:48.350Z,115
2016-05-17T07:40:48.274Z,115
2016-05-17T07:41:57.261Z,115
2016-05-17T07:42:47.796Z,115
2016-05-17T07:43:47.907Z,115
2016-05-17T07:44:45.082Z,115
2016-05-17T07:45:47.896Z,120
2016-05-17T07:46:44.853Z,125
2016-05-17T07:47:45.122Z,125
2016-05-17T07:48:53.702Z,125
2016-05-17T07:49:59.627Z,125
2016-05-17T07:50:47.692Z,125
2016-05-17T07:51:44.945Z,130
2016-05-17T07:52:44.713Z,130
2016-05-17T07:53:56.559Z,135
2016-05-17T07:54:44.531Z,140
2016-05-17T07:55:47.408Z,140
2016-05-17T07:56:50.755Z,140
2016-05-17T07:57:47.601Z,140
2016-05-17T07:58:48.135Z,140
2016-05-17T07:59:50.670Z,140
2016-05-17T08:00:46.937Z,140
2016-05-17T08:01:46.956Z,140
2016-05-17T08:02:44.006Z,145
2016-05-17T08:03:47.617Z,145
2016-05-17T08:04:44.073Z,145
2016-05-17T08:05:44.200Z,145
2016-05-17T08:06:47.017Z,145
2016-05-17T08:07:43.738Z,145
2016-05-17T08:08:47.036Z,145
2016-05-17T08:09:43.759Z,145
2016-05-17T08:10:43.839Z,145
2016-05-17T08:11:43.499Z,150
2016-05-17T08:12:43.345Z,150
2016-05-17T08:13:46.441Z,150
2016-05-17T08:14:43.632Z,150
2016-05-17T08:15:49.477Z,150
2016-05-17T08:16:49.762Z,145
2016-05-17T08:17:46.499Z,145
2016-05-17T08:18:43.063Z,145
2016-05-17T08:19:43.441Z,145
2016-05-17T08:20:49.351Z,150
2016-05-17T08:21:46.243Z,150
2016-05-17T08:22:43.622Z,150
2016-05-17T08:23:46.046Z,150
2016-05-17T08:24:49.596Z,155
2016-05-17T08:25:55.348Z,150
2016-05-17T08:26:43.023Z,150
2016-05-17T08:27:45.760Z,150
2016-05-17T08:28:42.872Z,150
2016-05-17T08:29:45.609Z,150
2016-05-17T08:30:49.206Z,150
2016-05-17T08:31:45.318Z,155
2016-05-17T08:32:46.976Z,155
2016-05-17T08:34:06.120Z,155
2016-05-17T08:34:43.404Z,155
2016-05-17T08:35:45.626Z,155
2016-05-17T08:36:45.503Z,155
2016-05-17T08:37:42.522Z,155
2016-05-17T08:38:45.322Z,150
2016-05-17T08:39:48.355Z,150
2016-05-17T08:40:43.248Z,150
2016-05-17T08:41:50.923Z,155
2016-05-17T08:42:51.566Z,150
2016-05-17T08:43:48.194Z,155
2016-05-17T08:44:42.446Z,155
2016-05-17T08:45:44.808Z,155
2016-05-17T08:46:45.155Z,160
2016-05-17T08:47:42.314Z,160
2016-05-17T08:48:41.785Z,160
2016-05-17T08:49:45.054Z,160
2016-05-17T08:50:44.884Z,165
2016-05-17T08:51:51.324Z,160
2016-05-17T08:52:44.499Z,160
2016-05-17T08:53:41.502Z,160
2016-05-17T08:54:41.630Z,160
2016-05-17T08:55:48.538Z,160
2016-05-17T08:56:41.635Z,170
2016-05-17T08:57:44.388Z,165
2016-05-17T08:58:44.578Z,170
2016-05-17T08:59:44.799Z,175
2016-05-17T09:00:41.302Z,180
2016-05-17T09:01:41.242Z,185
2016-05-17T09:02:44.823Z,190
2016-05-17T09:03:44.028Z,195
2016-05-17T09:04:41.531Z,195
2016-05-17T09:05:41.222Z,195
2016-05-17T09:06:44.239Z,190
2016-05-17T09:07:44.227Z,190
2016-05-17T09:08:41.136Z,190
2016-05-17T09:09:47.014Z,185
2016-05-17T09:10:41.533Z,185
2016-05-17T09:11:40.738Z,180
2016-05-17T09:12:49.834Z,175
2016-05-17T09:13:45.165Z,170
2016-05-17T09:14:43.544Z,170
2016-05-17T09:15:43.483Z,175
2016-05-17T09:16:43.299Z,180
2016-05-17T09:17:40.410Z,180
2016-05-17T09:18:49.772Z,185
2016-05-17T09:19:40.712Z,185
2016-05-17T09:20:40.949Z,185
2016-05-17T09:21:44.905Z,190
2016-05-17T09:22:44.205Z,185
2016-05-17T09:23:46.068Z,185
2016-05-17T09:24:46.320Z,190
2016-05-17T09:25:43.041Z,195
2016-05-17T09:26:40.372Z,195
2016-05-17T09:27:43.156Z,195
2016-05-17T09:28:46.315Z,195
2016-05-17T09:29:43.052Z,195
2016-05-17T09:30:46.007Z,195
2016-05-17T09:31:40.198Z,195
2016-05-17T09:32:42.982Z,195
2016-05-17T09:33:45.720Z,195
2016-05-17T09:34:46.112Z,190
2016-05-17T09:35:45.865Z,190
2016-05-17T09:36:40.165Z,195
2016-05-17T09:37:41.511Z,195
2016-05-17T09:38:42.795Z,195
2016-05-17T09:39:40.079Z,190
2016-05-17T09:40:45.941Z,185
2016-05-17T09:41:42.225Z,180
2016-05-17T09:42:45.540Z,180
2016-05-17T09:43:39.417Z,185
2016-05-17T09:44:39.499Z,185
2016-05-17T09:45:39.782Z,185
2016-05-17T09:46:42.207Z,190
2016-05-17T09:47:38.866Z,190
2016-05-17T09:48:38.805Z,190
2016-05-17T09:49:39.496Z,185
2016-05-17T09:50:38.796Z,185
2016-05-17T09:51:38.893Z,190
2016-05-17T09:52:39.208Z,190
2016-05-17T09:53:41.742Z,195
2016-05-17T09:54:45.212Z,200
2016-05-17T09:55:39.029Z,200
2016-05-17T09:56:38.641Z,205
2016-05-17T09:57:38.705Z,210
2016-05-17T09:58:39.240Z,210
2016-05-17T09:59:38.492Z,205
2016-05-17T10:00:42.167Z,210
2016-05-17T10:01:44.513Z,210
2016-05-17T10:02:41.390Z,210
2016-05-17T10:03:41.753Z,210
2016-05-17T10:04:44.443Z,210
2016-05-17T10:05:38.461Z,210
2016-05-17T10:06:41.683Z,215
2016-05-17T10:07:41.248Z,220
2016-05-17T10:08:38.251Z,220
2016-05-17T10:09:37.878Z,225
2016-05-17T10:10:38.803Z,215
2016-05-17T10:11:38.461Z,215
2016-05-17T10:12:38.200Z,215
2016-05-17T10:13:41.077Z,215
2016-05-17T10:14:38.705Z,220
2016-05-17T10:15:37.567Z,220
2016-05-17T10:16:38.022Z,220
2016-05-17T10:17:37.869Z,225
2016-05-17T10:18:40.825Z,220
2016-05-17T10:19:40.639Z,215
2016-05-17T10:20:37.642Z,215
2016-05-17T10:21:37.724Z,215
2016-05-17T10:22:43.679Z,215
2016-05-17T10:23:40.447Z,210
2016-05-17T10:24:40.637Z,200
2016-05-17T10:25:49.156Z,200
2016-05-17T10:26:40.221Z,190
2016-05-17T10:27:40.223Z,195
2016-05-17T10:28:37.008Z,185
2016-05-17T10:29:37.182Z,180
2016-05-17T10:30:37.028Z,180
2016-05-17T10:31:37.516Z,180
2016-05-17T10:32:37.034Z,175
2016-05-17T10:33:37.209Z,170
2016-05-17T10:34:36.962Z,160
2016-05-17T10:35:36.807Z,170
2016-05-17T10:36:38.231Z,155
2016-05-17T10:37:37.329Z,155
2016-05-17T10:38:39.753Z,155
2016-05-17T10:39:36.928Z,150
2016-05-17T10:40:39.868Z,140
2016-05-17T10:41:36.840Z,140
2016-05-17T10:42:39.717Z,140
2016-05-17T10:43:39.314Z,135
2016-05-17T10:44:39.629Z,115
2016-05-17T10:45:42.959Z,120
2016-05-17T10:46:36.447Z,110
2016-05-17T10:47:36.294Z,110
2016-05-17T10:48:36.217Z,100
2016-05-17T10:49:43.142Z,95
2016-05-17T10:50:39.473Z,95
2016-05-17T10:51:37.008Z,90
2016-05-17T10:52:39.244Z,95
2016-05-17T10:53:35.935Z,95
2016-05-17T10:54:42.655Z,95
2016-05-17T10:55:41.908Z,95
2016-05-17T10:56:44.755Z,95
2016-05-17T10:57:39.585Z,100
2016-05-17T10:58:35.869Z,95
2016-05-17T10:59:38.951Z,100
2016-05-17T11:00:39.032Z,100
2016-05-17T11:01:45.440Z,100
2016-05-17T11:02:39.146Z,100
2016-05-17T11:03:35.836Z,100
2016-05-17T11:04:44.573Z,105
2016-05-17T11:05:35.560Z,105
2016-05-17T11:06:37.812Z,105
2016-05-17T11:07:36.284Z,105
2016-05-17T11:08:35.834Z,115
2016-05-17T11:09:38.665Z,115
2016-05-17T11:10:38.495Z,135
2016-05-17T11:11:35.154Z,140
2016-05-17T11:12:35.110Z,135
2016-05-17T11:13:36.144Z,150
2016-05-17T11:14:37.881Z,175
2016-05-17T11:15:38.321Z,170
2016-05-17T11:16:35.136Z,155
2016-05-17T11:17:35.327Z,140
2016-05-17T11:18:34.767Z,130
2016-05-17T11:19:35.208Z,125
2016-05-17T11:20:41.508Z,120
2016-05-17T11:21:44.165Z,130
2016-05-17T11:22:41.168Z,135
2016-05-17T11:23:40.969Z,155
2016-05-17T11:24:38.158Z,150
2016-05-17T11:25:34.505Z,125
2016-05-17T11:26:37.508Z,130
2016-05-17T11:27:34.494Z,140
2016-05-17T11:28:46.435Z,150
2016-05-17T11:29:40.781Z,165
2016-05-17T11:30:37.721Z,170
2016-05-17T11:31:40.474Z,175
2016-05-17T11:32:34.383Z,220
2016-05-17T11:33:40.448Z,210
2016-05-17T11:34:40.388Z,225
2016-05-17T11:35:37.657Z,230
2016-05-17T11:36:34.596Z,240
2016-05-17T11:37:37.083Z,220
2016-05-17T11:38:34.274Z,195
2016-05-17T11:39:37.417Z,160
2016-05-17T11:40:37.607Z,165
2016-05-17T11:41:33.517Z,160
2016-05-17T11:42:40.691Z,165
2016-05-17T11:43:34.069Z,160
2016-05-17T11:44:33.477Z,155
2016-05-17T11:45:39.839Z,160
2016-05-17T11:46:33.420Z,130
2016-05-17T11:47:33.439Z,115
2016-05-17T11:48:33.566Z,110
2016-05-17T11:49:33.366Z,105
2016-05-17T11:50:37.322Z,105
2016-05-17T11:51:33.371Z,110
2016-05-17T11:52:33.671Z,125
2016-05-17T11:53:33.721Z,145
2016-05-17T11:54:36.676Z,150
2016-05-17T11:55:36.429Z,150
2016-05-17T11:56:36.432Z,145
2016-05-17T11:57:36.309Z,120
2016-05-17T11:58:33.360Z,110
2016-05-17T11:59:33.394Z,105
2016-05-17T12:00:33.535Z,105
2016-05-17T12:01:33.398Z,105
2016-05-17T12:02:36.010Z,105
2016-05-17T12:03:32.638Z,105
2016-05-17T12:04:32.812Z,110
2016-05-17T12:05:32.722Z,120
2016-05-17T12:06:33.021Z,125
2016-05-17T12:07:32.992Z,115
2016-05-17T12:08:33.057Z,110
2016-05-17T12:09:35.873Z,105
2016-05-17T12:10:32.219Z,105
2016-05-17T12:11:38.472Z,110
2016-05-17T12:12:33.006Z,115
2016-05-17T12:13:32.603Z,120
2016-05-17T12:14:47.433Z,130
2016-05-17T12:15:32.764Z,145
2016-05-17T12:16:41.376Z,170
2016-05-17T12:17:35.394Z,185
2016-05-17T12:18:32.116Z,205
2016-05-17T12:19:35.369Z,215
2016-05-17T12:20:32.106Z,205
2016-05-17T12:21:35.764Z,195
2016-05-17T12:22:35.002Z,185
2016-05-17T12:23:31.986Z,165
2016-05-17T12:24:35.007Z,140
2016-05-17T12:25:34.697Z,140
2016-05-17T12:26:31.807Z,155
2016-05-17T12:27:31.763Z,175
2016-05-17T12:28:34.877Z,185
2016-05-17T12:29:32.111Z,200
2016-05-17T12:30:31.552Z,200
2016-05-17T12:31:31.930Z,210
2016-05-17T12:32:31.494Z,220
2016-05-17T12:33:31.435Z,225
2016-05-17T12:34:34.377Z,220
2016-05-17T12:35:31.377Z,225
2016-05-17T12:36:31.505Z,220
2016-05-17T12:37:34.260Z,210
2016-05-17T12:38:31.604Z,200
2016-05-17T12:39:31.232Z,190
2016-05-17T12:40:31.110Z,185
2016-05-17T12:41:40.537Z,180
2016-05-17T12:42:34.228Z,180
2016-05-17T12:43:30.837Z,180
2016-05-17T12:44:34.061Z,185
2016-05-17T12:45:36.798Z,195
2016-05-17T12:46:31.267Z,205
2016-05-17T12:47:34.037Z,215
2016-05-17T12:48:30.944Z,220
2016-05-17T12:49:31.180Z,225
2016-05-17T12:50:31.386Z,240
2016-05-17T12:51:34.033Z,250
2016-05-17T12:52:30.502Z,245
2016-05-17T12:53:33.444Z,240
2016-05-17T12:54:30.475Z,240
2016-05-17T12:55:30.291Z,240
2016-05-17T12:56:33.594Z,235
2016-05-17T12:57:33.580Z,235
2016-05-17T12:58:30.861Z,235
2016-05-17T12:59:33.538Z,235
2016-05-17T13:00:34.213Z,245
2016-05-17T13:01:33.166Z,240
2016-05-17T13:02:30.997Z,240
2016-05-17T13:03:30.672Z,225
2016-05-17T13:04:30.659Z,205
2016-05-17T13:05:33.508Z,175
2016-05-17T13:06:32.821Z,150
2016-05-17T13:07:29.948Z,145
2016-05-17T13:08:30.357Z,140
2016-05-17T13:09:29.843Z,145
2016-05-17T13:10:36.553Z,145
2016-05-17T13:11:30.537Z,145
2016-05-17T13:12:29.806Z,145
2016-05-17T13:13:41.967Z,145
2016-05-17T13:14:35.704Z,145
2016-05-17T13:15:29.532Z,155
2016-05-17T13:16:29.707Z,160
2016-05-17T13:17:29.445Z,160
2016-05-17T13:18:32.540Z,175
2016-05-17T13:19:29.230Z,190
2016-05-17T13:20:29.858Z,195
2016-05-17T13:21:35.739Z,200
2016-05-17T13:22:32.442Z,210
2016-05-17T13:23:29.428Z,220
2016-05-17T13:24:29.728Z,225
2016-05-17T13:25:32.324Z,230
2016-05-17T13:26:29.344Z,240
2016-05-17T13:27:29.283Z,250
2016-05-17T13:28:28.958Z,260
2016-05-17T13:29:32.226Z,275
2016-05-17T13:30:31.979Z,290
2016-05-17T13:31:32.777Z,300
2016-05-17T13:32:31.984Z,295
2016-05-17T13:33:28.768Z,270
2016-05-17T13:34:28.771Z,250
2016-05-17T13:35:32.195Z,220
2016-05-17T13:36:28.573Z,185
2016-05-17T13:37:29.388Z,155
2016-05-17T13:38:28.626Z,140
2016-05-17T13:39:31.815Z,125
2016-05-17T13:40:28.427Z,125
2016-05-17T13:41:31.587Z,130
2016-05-17T13:42:28.402Z,130
2016-05-17T13:43:28.248Z,135
2016-05-17T13:44:28.923Z,135
2016-05-17T13:45:34.754Z,140
2016-05-17T13:46:31.053Z,140
2016-05-17T13:47:31.400Z,150
2016-05-17T13:48:28.856Z,145
2016-05-17T13:49:28.343Z,145
2016-05-17T13:50:31.376Z,150
2016-05-17T13:51:31.051Z,155
2016-05-17T13:52:28.319Z,165
2016-05-17T13:53:28.369Z,175
2016-05-17T13:54:27.872Z,185
2016-05-17T13:55:31.187Z,190
2016-05-17T13:56:28.017Z,190
2016-05-17T13:57:34.333Z,190
2016-05-17T13:58:27.882Z,185
2016-05-17T13:59:27.433Z,185
2016-05-17T14:00:28.388Z,190
2016-05-17T14:01:30.655Z,200
2016-05-17T14:02:33.518Z,210
2016-05-17T14:03:30.630Z,205
2016-05-17T14:04:28.477Z,200
2016-05-17T14:05:31.979Z,200
2016-05-17T14:06:27.372Z,195
2016-05-17T14:07:31.157Z,195
2016-05-17T14:08:30.393Z,195
2016-05-17T14:09:27.052Z,195